This is the latest recevied weather packets stored in our database for station/object KC0UFP. If no packets are shown the sender has not sent any weather packets the latest 10 day(s).
| Time | Temp. | Humidity | Pressure | Rain* | Wind** | Luminosity | Snow |
|---|---|---|---|---|---|---|---|
| 1777725146 | 11.67° C | 77% | 1017.8 hPa | 0 mm | - | 84 W/m² | - |
| 1777724539 | 11.11° C | 80% | 1017.4 hPa | 0 mm | - | 122 W/m² | - |
| 1777723935 | 10.56° C | 83% | 1017.6 hPa | 0 mm | - | 81 W/m² | - |
| 1777723631 | 10.56° C | 84% | 1017.4 hPa | 0 mm | - | 73 W/m² | - |
| 1777723328 | 10° C | 87% | 1017.2 hPa | 0 mm | - | 64 W/m² | - |
| 1777722722 | 10° C | 90% | 1017.3 hPa | 0 mm | - | 50 W/m² | - |
| 1777722418 | 9.44° C | 90% | 1017.4 hPa | 0 mm | - | 44 W/m² | - |
| 1777722115 | 9.44° C | 90% | 1017 hPa | 0 mm | - | 38 W/m² | - |
| 1777721812 | 8.89° C | 91% | 1017 hPa | 0 mm | - | 33 W/m² | - |
| 1777721510 | 8.89° C | 91% | 1016.8 hPa | 0 mm | - | 27 W/m² | - |
| 1777721208 | 8.33° C | 92% | 1017.1 hPa | 0 mm | - | 22 W/m² | - |
| 1777720905 | 7.78° C | 94% | 1016.9 hPa | 0 mm | - | 16 W/m² | - |
| 1777720603 | 7.22° C | 94% | 1016.9 hPa | 0 mm | - | 12 W/m² | - |
| 1777720300 | 7.78° C | 93% | 1016.6 hPa | 0 mm | - | 8 W/m² | - |
| 1777719998 | 7.78° C | 93% | 1017 hPa | 0 mm | - | 5 W/m² | - |
| 1777719695 | 7.78° C | 93% | 1016.8 hPa | 0 mm | - | 2 W/m² | - |
| 1777719392 | 7.78° C | 93% | 1017 hPa | 0 mm | - | 1 W/m² | - |
| 1777719089 | 7.78° C | 92% | 1016.9 hPa | 0 mm | - | 0 W/m² | - |
| 1777718786 | 8.33° C | 91% | 1016.8 hPa | 0 mm | - | 0 W/m² | - |
| 1777718484 | 8.33° C | 91% | 1016.7 hPa | 0 mm | - | 0 W/m² | - |
| 1777718181 | 7.78° C | 91% | 1016.8 hPa | 0 mm | - | 0 W/m² | - |
| 1777717879 | 7.78° C | 89% | 1016.7 hPa | 0 mm | - | 0 W/m² | - |
| 1777717576 | 7.78° C | 89% | 1016.9 hPa | 0 mm | - | 0 W/m² | - |
| 1777717272 | 8.33° C | 88% | 1016.9 hPa | 0 mm | - | 0 W/m² | - |
| 1777716970 | 8.33° C | 87% | 1016.7 hPa | 0 mm | - | 0 W/m² | - |
* Rain latest hour (hover to see other rain measurements)
** Current wind speed in m/s (hover to see current wind gust speed)